Time;durP1;ratioP1;P1;durP2;ratioP2;P2;SDS_P1;SDS_P2;PMS_P1;PMS_P2;Temp;Humidity;BMP_temperature;BMP_pressure;BME280_temperature;BME280_humidity;BME280_pressure;Samples;Min_cycle;Max_cycle;Signal;HPM_P1;HPM_P2
2022/07/05 04:22:33;;;;;;;6.75;5.38;;;;;;;13.50;100.00;100598.56;5109123;27;20142;-72
2022/07/05 04:25:16;;;;;;;10.23;5.32;;;;;;;13.56;100.00;100603.16;5109317;28;20043;-74
2022/07/05 04:27:52;;;;;;;6.68;4.53;;;;;;;13.58;100.00;100614.53;5087532;28;20063;-74
2022/07/05 04:30:24;;;;;;;6.80;4.47;;;;;;;13.60;100.00;100607.13;5087062;28;20400;-73
2022/07/05 04:32:51;;;;;;;7.28;4.95;;;;;;;13.68;100.00;100599.00;5103119;22;20692;-71
2022/07/05 04:35:17;;;;;;;9.85;5.85;;;;;;;13.73;100.00;100607.31;5088902;28;20061;-70
2022/07/05 04:37:44;;;;;;;7.78;5.05;;;;;;;13.77;100.00;100613.97;5070569;28;20123;-71
2022/07/05 04:40:12;;;;;;;7.30;4.43;;;;;;;13.82;100.00;100616.94;5087095;28;20033;-71
2022/07/05 04:42:38;;;;;;;8.13;4.32;;;;;;;13.90;100.00;100617.84;5082477;28;20044;-70
2022/07/05 04:45:05;;;;;;;6.40;4.23;;;;;;;13.93;100.00;100614.78;5091060;28;20403;-70
2022/07/05 04:47:31;;;;;;;8.52;6.03;;;;;;;14.03;100.00;100615.34;5090761;28;20047;-70
2022/07/05 04:49:57;;;;;;;12.68;6.18;;;;;;;14.17;100.00;100625.19;5090387;28;20036;-70
2022/07/05 04:52:24;;;;;;;11.80;5.55;;;;;;;14.25;100.00;100632.28;5090522;28;20452;-70
2022/07/05 04:54:50;;;;;;;7.22;5.15;;;;;;;14.34;100.00;100633.84;5108650;28;20069;-70
2022/07/05 04:57:15;;;;;;;12.90;5.88;;;;;;;14.45;97.31;100632.53;5108878;28;20123;-70
2022/07/05 04:59:41;;;;;;;11.95;6.65;;;;;;;14.57;95.31;100636.41;5108428;28;20046;-70
2022/07/05 05:02:06;;;;;;;7.32;5.15;;;;;;;14.64;94.51;100634.63;5108447;28;20040;-70
2022/07/05 05:04:32;;;;;;;8.20;5.22;;;;;;;14.74;94.68;100629.78;5108624;28;20063;-70
2022/07/05 05:06:58;;;;;;;8.65;4.68;;;;;;;14.83;93.24;100635.84;5108511;28;20043;-71
2022/07/05 05:09:23;;;;;;;8.23;4.32;;;;;;;14.93;92.31;100629.16;5108213;28;20042;-70
2022/07/05 05:11:49;;;;;;;10.57;5.15;;;;;;;15.03;91.73;100642.22;5108318;28;20484;-70
2022/07/05 05:14:14;;;;;;;7.45;4.43;;;;;;;15.12;92.02;100638.38;5073414;28;20097;-71
2022/07/05 05:16:40;;;;;;;8.68;4.35;;;;;;;15.20;91.57;100638.25;5108352;28;20051;-71
2022/07/05 05:19:06;;;;;;;8.88;5.03;;;;;;;15.34;90.48;100643.72;5107971;28;20055;-70
2022/07/05 05:21:31;;;;;;;9.68;4.20;;;;;;;15.51;88.44;100642.41;5108090;28;20538;-70
2022/07/05 05:23:57;;;;;;;8.18;4.00;;;;;;;15.60;85.35;100643.09;5108100;28;20089;-71
2022/07/05 05:26:22;;;;;;;6.97;3.63;;;;;;;15.67;85.31;100652.88;5108125;28;20055;-71
2022/07/05 05:28:48;;;;;;;4.70;3.22;;;;;;;15.72;84.38;100647.75;5107854;28;20411;-70
2022/07/05 05:31:19;;;;;;;6.32;3.85;;;;;;;15.78;84.77;100646.13;5057388;28;20032;-70
2022/07/05 05:33:47;;;;;;;5.00;3.13;;;;;;;15.86;83.66;100648.66;5078406;28;20043;-62
2022/07/05 05:36:13;;;;;;;8.20;4.15;;;;;;;15.93;84.42;100654.91;5094383;28;20338;-55
2022/07/05 05:38:38;;;;;;;6.03;3.20;;;;;;;15.99;82.93;100662.16;5094266;28;20136;-55
2022/07/05 05:41:04;;;;;;;5.60;3.30;;;;;;;16.04;82.42;100655.34;5094149;28;20028;-48
2022/07/05 05:43:29;;;;;;;4.57;3.33;;;;;;;16.16;80.38;100659.97;5094246;28;20134;-52
2022/07/05 05:45:55;;;;;;;5.75;2.90;;;;;;;16.22;80.54;100663.72;5094260;28;20032;-49
2022/07/05 05:48:20;;;;;;;7.40;4.80;;;;;;;16.28;81.01;100665.59;5094050;28;20040;-52
2022/07/05 05:50:46;;;;;;;8.07;4.47;;;;;;;16.35;80.85;100668.31;5093852;28;20028;-51
2022/07/05 05:53:12;;;;;;;9.80;3.88;;;;;;;16.48;80.82;100674.56;5094009;28;20449;-63
2022/07/05 05:55:38;;;;;;;7.85;4.15;;;;;;;16.57;80.04;100672.56;5094014;28;20048;-63
2022/07/05 05:58:24;;;;;;;5.55;3.10;;;;;;;16.68;80.58;100679.19;5093897;28;20035;-63
2022/07/05 06:00:52;;;;;;;5.82;3.95;;;;;;;16.77;81.02;100667.25;5093630;28;20044;-63
2022/07/05 06:03:22;;;;;;;6.47;3.95;;;;;;;16.94;80.85;100671.19;5093769;28;20036;-63
2022/07/05 06:05:48;;;;;;;12.73;4.78;;;;;;;17.11;79.78;100677.03;5093826;28;20536;-63
2022/07/05 06:08:14;;;;;;;5.07;3.65;;;;;;;17.21;79.19;100682.00;5093915;28;20170;-63
2022/07/05 06:10:40;;;;;;;5.43;4.00;;;;;;;17.24;79.29;100677.03;5093738;28;20051;-62
2022/07/05 06:13:08;;;;;;;5.63;3.33;;;;;;;17.28;79.37;100682.84;5093545;28;20111;-63
2022/07/05 06:15:34;;;;;;;10.93;4.30;;;;;;;17.27;77.72;100683.88;5093539;28;20043;-63
2022/07/05 06:18:00;;;;;;;6.82;3.60;;;;;;;17.28;78.39;100685.56;5093582;28;20040;-63
2022/07/05 06:20:32;;;;;;;6.00;3.47;;;;;;;17.30;79.42;100686.16;5093113;28;20118;-63
2022/07/05 06:22:59;;;;;;;6.47;3.90;;;;;;;17.35;80.06;100687.19;5093508;28;20036;-63
2022/07/05 06:25:25;;;;;;;5.20;3.42;;;;;;;17.42;78.67;100689.06;5093604;28;20451;-63
2022/07/05 06:28:00;;;;;;;5.75;3.10;;;;;;;17.53;77.57;100697.31;5093493;28;20070;-63
2022/07/05 06:30:28;;;;;;;7.10;3.70;;;;;;;17.62;76.92;100689.88;5075082;28;20062;-63
2022/07/05 06:32:54;;;;;;;5.93;3.47;;;;;;;17.71;76.97;100698.56;5093252;28;20403;-63
2022/07/05 06:35:21;;;;;;;7.43;3.40;;;;;;;17.83;73.92;100691.53;5093317;28;20402;-63
2022/07/05 06:37:48;;;;;;;8.43;3.60;;;;;;;17.95;73.77;100700.66;5093254;28;20028;-62
2022/07/05 06:40:18;;;;;;;5.50;3.20;;;;;;;17.98;74.30;100697.50;5092868;28;20331;-63
2022/07/05 06:42:44;;;;;;;5.93;3.67;;;;;;;18.05;74.02;100692.94;5093075;28;20047;-63
2022/07/05 06:45:10;;;;;;;5.95;4.03;;;;;;;18.17;73.31;100696.63;5073953;28;20723;-63
2022/07/05 06:47:35;;;;;;;7.88;3.17;;;;;;;18.30;73.35;100695.75;5093044;28;20047;-63
2022/07/05 06:50:03;;;;;;;5.32;3.20;;;;;;;18.34;70.92;100697.00;5092793;28;20036;-63
2022/07/05 06:52:29;;;;;;;;;;;;;;;18.46;66.17;100688.25;5093255;28;20078;-57
2022/07/05 06:54:54;;;;;;;7.82;3.83;;;;;;;18.59;66.23;100694.41;5092986;28;19916;-61
2022/07/05 06:57:21;;;;;;;4.75;2.85;;;;;;;18.67;65.77;100690.66;5093348;28;20097;-61
2022/07/05 06:59:48;;;;;;;3.53;2.50;;;;;;;18.75;64.71;100693.09;5092550;28;20496;-61
2022/07/05 07:02:14;;;;;;;7.90;3.40;;;;;;;18.83;61.96;100692.03;5074680;28;20040;-60
2022/07/05 07:04:39;;;;;;;6.93;3.60;;;;;;;18.96;60.02;100692.75;5092695;28;20043;-59
2022/07/05 07:09:17;;;;;;;5.82;3.67;;;;;;;19.18;61.21;100693.25;5092615;28;20085;-60
2022/07/05 07:10:02;;;;;;;4.43;3.13;;;;;;;19.21;63.00;100692.81;5092114;28;20040;-60
2022/07/05 07:12:29;;;;;;;7.95;3.55;;;;;;;19.34;62.60;100696.47;5092517;28;20541;-60
2022/07/05 07:14:55;;;;;;;6.75;3.22;;;;;;;19.52;60.53;100686.53;5074470;28;20031;-58
2022/07/05 07:17:20;;;;;;;6.13;3.13;;;;;;;19.62;60.99;100691.47;5092539;28;20043;-61
2022/07/05 07:19:46;;;;;;;5.00;2.90;;;;;;;19.63;61.22;100695.00;5092179;28;20048;-61
2022/07/05 07:22:11;;;;;;;6.93;3.25;;;;;;;19.75;59.86;100702.13;5092340;28;20102;-58
2022/07/05 07:24:36;;;;;;;7.63;3.22;;;;;;;19.81;61.83;100702.31;5092331;28;20032;-61
2022/07/05 07:27:02;;;;;;;3.05;2.60;;;;;;;19.94;61.97;100707.59;5092282;28;20378;-59
2022/07/05 07:29:29;;;;;;;4.32;2.75;;;;;;;19.95;60.20;100704.69;5091968;28;20031;-61
2022/07/05 07:31:55;;;;;;;8.43;2.80;;;;;;;20.00;61.46;100709.41;5091994;28;20035;-60
2022/07/05 07:34:21;;;;;;;6.20;2.65;;;;;;;20.03;61.08;100708.97;5092070;28;20447;-61
2022/07/05 07:36:47;;;;;;;4.18;2.72;;;;;;;20.00;62.44;100695.88;5092102;28;20028;-61
2022/07/05 07:39:13;;;;;;;4.28;3.00;;;;;;;20.38;61.29;100719.19;5091773;28;20028;-61
2022/07/05 07:41:38;;;;;;;7.65;3.05;;;;;;;20.37;59.78;100709.41;5091889;28;20047;-60
2022/07/05 07:44:04;;;;;;;5.93;2.90;;;;;;;20.41;60.47;100718.72;5092094;28;20081;-61
2022/07/05 07:46:29;;;;;;;6.97;2.60;;;;;;;20.47;60.59;100709.72;5092069;28;20453;-59
2022/07/05 07:48:55;;;;;;;2.92;2.40;;;;;;;20.70;59.08;100719.84;5091583;28;20123;-59
2022/07/05 07:51:21;;;;;;;5.15;2.65;;;;;;;20.74;58.99;100716.47;5091853;28;20043;-59
2022/07/05 07:53:47;;;;;;;5.93;3.22;;;;;;;20.97;59.49;100712.19;5091854;28;20035;-54
2022/07/05 07:56:12;;;;;;;5.60;2.55;;;;;;;21.01;57.66;100713.38;5091548;28;20077;-57
2022/07/05 07:58:38;;;;;;;6.07;2.90;;;;;;;21.16;55.90;100713.78;5091540;28;20071;-60
2022/07/05 08:01:05;;;;;;;5.15;3.00;;;;;;;21.17;57.45;100707.28;5091653;28;20060;-55
2022/07/05 08:03:32;;;;;;;6.75;2.67;;;;;;;21.26;58.03;100708.63;5091624;28;20082;-54
2022/07/05 08:05:57;;;;;;;3.55;2.42;;;;;;;21.36;56.13;100702.66;5091662;28;20053;-57
2022/07/05 08:08:23;;;;;;;5.15;2.72;;;;;;;21.54;57.79;100713.41;5091287;28;20040;-57
2022/07/05 08:10:48;;;;;;;5.55;2.60;;;;;;;21.60;56.75;100707.06;5073585;28;20135;-56
2022/07/05 08:13:13;;;;;;;4.15;2.50;;;;;;;21.78;56.16;100716.97;5091674;28;20044;-55
2022/07/05 08:15:39;;;;;;;4.43;2.45;;;;;;;21.96;55.58;100721.44;5091765;28;20032;-57
2022/07/05 08:23:32;;;;;;;8.65;2.70;;;;;;;22.36;55.16;100712.56;5091564;28;20040;-59
2022/07/05 08:25:57;;;;;;;4.50;2.55;;;;;;;22.46;51.51;100707.34;5091754;28;20036;-61
2022/07/05 08:28:24;;;;;;;12.23;3.05;;;;;;;22.63;54.09;100707.44;5091268;28;20044;-62
2022/07/05 08:30:49;;;;;;;3.63;2.60;;;;;;;22.73;52.23;100713.03;5091607;28;20153;-61
2022/07/05 08:33:14;;;;;;;4.90;3.20;;;;;;;22.91;51.03;100703.91;5091311;28;20069;-57
2022/07/05 08:35:40;;;;;;;4.00;2.17;;;;;;;23.05;51.35;100707.13;5091555;28;20036;-61
2022/07/05 08:38:05;;;;;;;4.68;2.40;;;;;;;23.13;52.01;100709.44;5091327;28;20454;-59
2022/07/05 08:40:36;;;;;;;7.38;2.50;;;;;;;23.21;51.05;100704.47;5091480;28;20119;-62
2022/07/05 08:43:02;;;;;;;6.47;2.15;;;;;;;23.30;50.38;100710.31;5091347;28;20036;-59
2022/07/05 08:45:30;;;;;;;9.05;2.55;;;;;;;23.45;49.15;100696.13;5091468;28;20023;-61
2022/07/05 08:48:00;;;;;;;6.43;2.30;;;;;;;23.72;49.95;100697.13;5091356;28;20042;-61
2022/07/05 08:50:26;;;;;;;4.90;2.30;;;;;;;23.78;48.52;100704.28;5091102;28;20043;-58
2022/07/05 08:52:52;;;;;;;6.38;2.28;;;;;;;23.79;46.73;100703.22;5091279;28;20059;-60
2022/07/05 08:55:18;;;;;;;3.47;2.03;;;;;;;24.00;46.89;100704.34;5091330;28;20090;-59
2022/07/05 08:57:43;;;;;;;5.55;2.03;;;;;;;24.02;45.03;100695.94;5091260;28;20548;-60
2022/07/05 09:00:10;;;;;;;5.57;2.10;;;;;;;24.23;45.90;100700.56;5090859;28;20040;-61
2022/07/05 09:02:35;;;;;;;7.88;2.25;;;;;;;24.34;45.85;100696.13;5091006;28;20048;-60
2022/07/05 09:05:02;;;;;;;2.50;1.73;;;;;;;24.47;45.86;100695.72;5091500;28;20044;-62
2022/07/05 09:07:32;;;;;;;8.10;2.03;;;;;;;24.59;44.86;100696.41;5091982;28;20047;-60
2022/07/05 09:10:01;;;;;;;2.03;1.58;;;;;;;24.79;46.04;100695.00;5094848;28;20040;-61
2022/07/05 09:12:26;;;;;;;1.98;1.60;;;;;;;24.95;45.22;100694.06;5094892;28;20036;-62
2022/07/05 09:14:56;;;;;;;3.45;1.70;;;;;;;25.04;43.88;100691.69;5094992;28;20038;-56
2022/07/05 09:17:22;;;;;;;2.28;1.60;;;;;;;25.17;44.45;100692.13;5095068;28;20051;-59
2022/07/05 09:20:05;;;;;;;3.28;1.50;;;;;;;25.38;42.97;100700.47;5094508;28;20060;-58
2022/07/05 09:22:47;;;;;;;1.85;1.40;;;;;;;25.51;43.68;100701.94;5094719;28;20526;-59
2022/07/05 09:25:23;;;;;;;5.65;2.28;;;;;;;25.76;44.59;100704.06;5094638;28;20035;-59
2022/07/05 09:27:52;;;;;;;4.15;1.80;;;;;;;25.92;45.58;100701.16;5094661;28;20039;-61
2022/07/05 09:30:24;;;;;;;2.90;2.00;;;;;;;25.92;43.51;100703.06;5094467;28;20055;-60
2022/07/05 09:33:11;;;;;;;2.90;1.67;;;;;;;25.89;40.90;100700.88;5094459;28;20097;-61
2022/07/05 09:35:50;;;;;;;2.50;1.38;;;;;;;26.08;43.03;100707.53;5094522;28;20044;-61
2022/07/05 09:38:20;;;;;;;2.90;1.60;;;;;;;26.29;42.25;100710.38;5094424;28;20047;-62
2022/07/05 09:40:54;;;;;;;3.17;1.70;;;;;;;26.43;42.79;100708.81;5094221;28;20032;-60
2022/07/05 09:43:27;;;;;;;2.28;1.58;;;;;;;26.30;40.48;100709.28;5094283;28;20040;-59
2022/07/05 09:45:56;;;;;;;2.65;1.70;;;;;;;26.42;39.52;100712.63;5094389;28;20039;-61
2022/07/05 09:48:22;;;;;;;4.43;1.83;;;;;;;26.56;39.23;100702.84;5093898;28;20481;-62
2022/07/05 09:50:49;;;;;;;3.45;1.95;;;;;;;26.67;38.91;100700.94;5094342;28;20543;-61
2022/07/05 09:53:15;;;;;;;2.47;1.50;;;;;;;26.93;39.56;100705.41;5075831;28;20032;-61
2022/07/05 09:55:40;;;;;;;3.97;1.50;;;;;;;27.27;37.78;100692.06;5094201;28;20040;-62
2022/07/05 09:58:06;;;;;;;2.85;1.30;;;;;;;27.27;41.42;100694.00;5094122;28;20040;-60
2022/07/05 10:00:31;;;;;;;5.80;1.65;;;;;;;27.44;37.17;100689.03;5093608;28;20081;-58
2022/07/05 10:03:00;;;;;;;2.78;1.10;;;;;;;27.71;35.70;100696.16;5075991;28;20040;-61
2022/07/05 10:05:31;;;;;;;1.70;1.10;;;;;;;28.02;35.89;100691.44;5093944;28;20036;-59
2022/07/05 10:07:58;;;;;;;3.47;1.60;;;;;;;28.16;35.83;100687.00;5093886;28;20032;-58
2022/07/05 10:10:26;;;;;;;3.70;1.30;;;;;;;28.37;38.33;100687.78;5093526;28;20060;-60
2022/07/05 10:12:53;;;;;;;3.25;1.25;;;;;;;28.65;37.55;100689.00;5093768;28;20036;-61
2022/07/05 10:15:19;;;;;;;;;;;;;;;28.76;34.00;100687.84;5094008;28;20413;-62
2022/07/05 10:17:49;;;;;;;1.92;1.27;;;;;;;28.85;37.86;100691.63;5093785;28;19912;-61
2022/07/05 10:20:32;;;;;;;1.35;1.10;;;;;;;28.99;33.73;100678.13;5093340;28;20032;-62
2022/07/05 10:22:58;;;;;;;2.65;1.20;;;;;;;28.99;33.85;100680.88;5093548;28;20039;-59
2022/07/05 10:25:27;;;;;;;2.17;1.20;;;;;;;29.29;35.21;100688.03;5093388;28;20032;-61
2022/07/05 10:27:54;;;;;;;2.35;1.05;;;;;;;29.62;31.97;100686.41;5093505;28;20153;-61
2022/07/05 10:30:24;;;;;;;2.72;0.80;;;;;;;29.90;31.03;100686.66;5092985;28;20039;-59
2022/07/05 10:32:50;;;;;;;2.17;0.98;;;;;;;30.07;32.65;100673.28;5093653;28;20160;-62
2022/07/05 10:35:17;;;;;;;4.43;1.35;;;;;;;30.32;32.60;100688.66;5093704;28;20028;-59
2022/07/05 10:37:43;;;;;;;1.77;1.40;;;;;;;30.43;30.62;100687.41;5059190;28;20028;-62
2022/07/05 10:40:10;;;;;;;2.13;1.30;;;;;;;30.55;32.44;100684.22;5093011;28;20450;-61
2022/07/05 10:42:55;;;;;;;;;;;;;;;30.79;32.33;100681.44;5093574;28;20028;-61
2022/07/05 10:45:28;;;;;;;2.65;0.90;;;;;;;30.96;29.22;100683.66;5092673;28;20057;-62
2022/07/05 10:48:09;;;;;;;1.73;1.08;;;;;;;31.17;30.11;100686.88;5093059;28;20416;-62
2022/07/05 10:50:48;;;;;;;3.50;1.20;;;;;;;31.22;28.90;100681.31;5092742;28;20488;-62
2022/07/05 10:53:15;;;;;;;3.47;1.05;;;;;;;30.96;32.70;100675.41;5092940;28;20044;-62
2022/07/05 10:55:51;;;;;;;2.20;1.40;;;;;;;31.07;30.14;100679.63;5092981;28;20140;-62
2022/07/05 10:58:16;;;;;;;1.75;0.90;;;;;;;30.73;28.24;100680.69;5092678;28;20032;-61
2022/07/05 11:00:42;;;;;;;1.45;0.90;;;;;;;30.66;29.95;100668.41;5092754;28;20122;-61
2022/07/05 11:03:38;;;;;;;2.17;0.90;;;;;;;31.43;30.93;100674.38;5092613;28;20051;-60
2022/07/05 11:06:05;;;;;;;1.80;1.03;;;;;;;31.63;30.60;100680.66;5092792;28;20040;-60
2022/07/05 11:08:32;;;;;;;;;;;;;;;31.99;31.33;100670.59;5092890;28;20286;-62
2022/07/05 11:11:13;;;;;;;3.20;1.17;;;;;;;32.14;27.65;100658.44;5092602;28;19920;-61
2022/07/05 11:13:47;;;;;;;2.42;0.63;;;;;;;32.60;28.78;100668.50;5092456;28;20507;-62
2022/07/05 11:16:22;;;;;;;2.03;0.95;;;;;;;32.59;29.40;100669.63;5092419;28;20028;-62
2022/07/05 11:18:50;;;;;;;2.72;0.70;;;;;;;32.72;29.65;100670.72;5092268;28;20062;-62
2022/07/05 11:21:20;;;;;;;1.63;0.90;;;;;;;33.04;28.07;100675.22;5092329;28;20124;-62
2022/07/05 11:23:46;;;;;;;1.10;0.90;;;;;;;33.09;24.55;100664.06;5092422;28;20386;-62
2022/07/05 11:26:13;;;;;;;1.25;0.70;;;;;;;33.07;25.72;100671.84;5092450;28;20028;-61
2022/07/05 11:28:43;;;;;;;;;;;;;;;32.95;27.37;100672.41;5092485;28;20532;-61
2022/07/05 11:31:09;;;;;;;1.25;0.50;;;;;;;33.07;26.80;100669.09;5091674;28;19985;-63
2022/07/05 11:33:43;;;;;;;1.23;0.60;;;;;;;33.30;25.60;100669.88;5092108;28;20709;-61
2022/07/05 11:36:24;;;;;;;0.70;0.68;;;;;;;33.25;27.53;100668.06;5092199;28;20461;-61
2022/07/05 11:39:17;;;;;;;0.93;0.70;;;;;;;33.34;27.09;100660.66;5091868;28;20119;-61
2022/07/05 11:41:44;;;;;;;1.88;0.60;;;;;;;32.79;27.47;100662.81;5091889;28;20036;-61
2022/07/05 11:44:10;;;;;;;2.00;1.20;;;;;;;32.96;26.09;100663.00;5091891;28;20153;-61
2022/07/05 11:46:36;;;;;;;0.93;0.65;;;;;;;32.04;27.35;100651.22;5092062;28;20441;-62
2022/07/05 11:49:02;;;;;;;3.17;1.05;;;;;;;31.90;27.15;100649.59;5091615;28;20096;-62
2022/07/05 11:51:28;;;;;;;1.27;0.80;;;;;;;32.21;28.23;100647.81;5091732;28;20036;-61
2022/07/05 11:53:53;;;;;;;1.73;0.90;;;;;;;33.09;26.26;100647.50;5091955;28;20047;-62
2022/07/05 11:56:19;;;;;;;2.20;0.80;;;;;;;32.76;28.06;100644.16;5091700;28;20044;-59
2022/07/05 11:58:44;;;;;;;1.60;0.90;;;;;;;33.21;28.18;100647.75;5091509;28;20046;-62
2022/07/05 12:01:10;;;;;;;2.87;0.90;;;;;;;33.07;28.68;100645.06;5091886;28;20047;-62
2022/07/05 12:03:35;;;;;;;1.73;0.73;;;;;;;33.62;27.33;100635.66;5091529;28;20032;-62
2022/07/05 12:06:13;;;;;;;2.03;0.97;;;;;;;32.66;28.46;100634.97;5092080;28;20036;-62
2022/07/05 12:08:38;;;;;;;2.72;0.88;;;;;;;32.16;26.93;100638.88;5091393;28;20040;-62
2022/07/05 12:13:50;;;;;;;3.15;1.10;;;;;;;32.52;28.68;100633.38;5091522;28;20032;-62
2022/07/05 12:16:16;;;;;;;2.28;1.05;;;;;;;33.08;26.39;100630.13;5091522;28;20048;-62
2022/07/05 12:18:55;;;;;;;2.00;0.70;;;;;;;33.08;26.90;100632.91;5091269;28;20036;-62
2022/07/05 12:21:20;;;;;;;3.15;1.10;;;;;;;32.82;28.65;100626.34;5091474;28;20150;-62
2022/07/05 12:23:46;;;;;;;3.03;0.90;;;;;;;32.94;26.46;100632.97;5073302;28;20111;-62
2022/07/05 12:26:13;;;;;;;1.97;0.70;;;;;;;32.80;26.73;100631.34;5091509;28;20086;-62
2022/07/05 12:28:39;;;;;;;1.17;0.80;;;;;;;32.36;26.08;100632.94;5091177;28;20036;-63
2022/07/05 12:31:19;;;;;;;1.17;0.85;;;;;;;32.67;27.15;100636.63;5091362;28;20040;-62
2022/07/05 12:33:44;;;;;;;0.68;0.68;;;;;;;32.66;25.23;100625.88;5091520;28;20040;-59
2022/07/05 12:36:23;;;;;;;1.50;0.87;;;;;;;32.52;26.01;100628.69;5091561;28;20043;-62
2022/07/05 12:38:49;;;;;;;2.88;0.80;;;;;;;32.66;26.38;100623.13;5091082;28;20043;-60
2022/07/05 12:41:22;;;;;;;2.60;0.80;;;;;;;33.52;26.10;100617.44;5091245;28;20439;-62
2022/07/05 12:43:53;;;;;;;1.38;0.85;;;;;;;34.06;25.82;100618.13;5094175;28;20040;-62
2022/07/05 12:46:19;;;;;;;0.90;0.60;;;;;;;33.53;25.88;100623.75;5095459;28;20044;-62
2022/07/05 12:48:51;;;;;;;0.90;0.70;;;;;;;33.32;25.38;100617.91;5095059;28;20464;-62
2022/07/05 12:51:41;;;;;;;2.65;1.20;;;;;;;33.36;25.66;100607.88;5095139;28;20055;-62
2022/07/05 12:59:39;;;;;;;;;;;;;;;32.02;28.09;100608.56;5095417;28;20056;-61
2022/07/05 13:02:05;;;;;;;0.95;0.70;;;;;;;32.02;28.29;100603.88;5095155;28;19922;-62
2022/07/05 13:04:31;;;;;;;1.10;0.80;;;;;;;32.58;28.10;100610.09;5095027;28;20123;-61
2022/07/05 13:06:59;;;;;;;1.73;0.90;;;;;;;33.20;27.13;100602.78;5095191;28;20033;-60
2022/07/05 13:09:35;;;;;;;2.78;0.70;;;;;;;33.02;25.24;100611.28;5094824;28;20044;-62
2022/07/05 13:12:24;;;;;;;2.47;0.70;;;;;;;33.27;26.11;100610.63;5094944;28;20623;-61
2022/07/05 13:14:51;;;;;;;1.63;0.77;;;;;;;33.30;26.77;100603.63;5095060;28;20036;-62
2022/07/05 13:17:22;;;;;;;4.80;0.80;;;;;;;32.02;25.21;100606.63;5094970;28;20031;-62
2022/07/05 13:19:49;;;;;;;1.50;0.68;;;;;;;32.56;26.73;100609.59;5094512;28;20051;-62
2022/07/05 13:22:15;;;;;;;1.58;0.80;;;;;;;32.25;27.67;100606.69;5094996;28;20426;-61
2022/07/05 13:24:40;;;;;;;0.90;0.63;;;;;;;31.51;27.91;100593.88;5094724;28;20067;-62
2022/07/05 13:27:08;;;;;;;0.77;0.77;;;;;;;31.14;28.91;100597.53;5094852;28;20119;-62
2022/07/05 13:29:34;;;;;;;1.35;0.95;;;;;;;30.05;28.36;100603.25;5094297;28;20082;-62
2022/07/05 13:31:59;;;;;;;1.85;0.70;;;;;;;29.84;29.19;100603.53;5094567;28;20036;-62
2022/07/05 13:34:26;;;;;;;4.05;1.00;;;;;;;29.77;30.54;100597.56;5094680;28;20119;-62
2022/07/05 13:36:52;;;;;;;1.33;0.90;;;;;;;29.54;31.05;100593.72;5094517;28;20396;-62
2022/07/05 13:39:19;;;;;;;1.15;0.80;;;;;;;29.55;29.91;100592.63;5094070;28;20044;-62
2022/07/05 13:41:46;;;;;;;3.72;1.20;;;;;;;29.92;32.27;100600.13;5094402;28;20064;-62
2022/07/05 13:44:12;;;;;;;1.02;0.70;;;;;;;29.71;31.62;100602.28;5094401;28;20046;-62
2022/07/05 13:46:37;;;;;;;2.38;1.00;;;;;;;29.53;29.79;100594.00;5094432;28;20047;-62
2022/07/05 13:49:03;;;;;;;2.75;0.93;;;;;;;29.66;31.07;100607.03;5093974;28;20036;-62
2022/07/05 13:51:28;;;;;;;1.45;0.80;;;;;;;29.53;30.62;100602.22;5094153;28;20612;-62
2022/07/05 13:53:54;;;;;;;1.25;0.90;;;;;;;29.41;31.03;100603.44;5093827;28;20044;-62
2022/07/05 13:56:19;;;;;;;2.75;0.98;;;;;;;28.89;29.85;100596.75;5094223;28;20046;-60
2022/07/05 13:58:44;;;;;;;1.48;0.93;;;;;;;28.95;32.99;100599.47;5093865;28;20032;-61
2022/07/05 14:01:10;;;;;;;2.55;1.13;;;;;;;29.12;32.33;100597.13;5094086;28;20028;-61
2022/07/05 14:03:35;;;;;;;4.70;3.50;;;;;;;29.13;32.39;100591.34;5093920;28;20492;-61
2022/07/05 14:06:01;;;;;;;4.88;4.05;;;;;;;29.24;31.72;100594.00;5094043;28;20085;-61
2022/07/05 14:08:26;;;;;;;1.52;1.00;;;;;;;29.18;32.14;100587.75;5093469;28;20114;-61
2022/07/05 14:10:55;;;;;;;3.75;1.30;;;;;;;29.37;32.74;100585.09;5075805;28;20454;-61
2022/07/05 14:13:23;;;;;;;1.60;0.90;;;;;;;29.12;33.01;100594.38;5093794;28;20044;-61
2022/07/05 14:15:50;;;;;;;1.20;0.70;;;;;;;28.95;30.72;100591.22;5093879;28;20036;-62
2022/07/05 14:18:16;;;;;;;1.95;1.00;;;;;;;28.83;31.18;100592.41;5094577;28;20173;-61
2022/07/05 14:20:43;;;;;;;1.40;0.90;;;;;;;28.63;30.82;100590.66;5093601;28;20046;-61
2022/07/05 14:23:13;;;;;;;6.28;2.65;;;;;;;28.77;32.53;100581.78;5093422;28;20122;-61
2022/07/05 14:25:39;;;;;;;2.95;1.02;;;;;;;28.70;31.18;100584.84;5093603;28;20575;-61
2022/07/05 14:28:07;;;;;;;1.45;1.02;;;;;;;28.66;30.70;100581.03;5093445;28;20127;-61
2022/07/05 14:30:37;;;;;;;3.70;1.58;;;;;;;28.78;33.30;100562.31;5093281;28;20036;-61
2022/07/05 14:33:03;;;;;;;1.83;1.17;;;;;;;28.89;32.53;100569.34;5093206;28;20047;-60
2022/07/05 14:35:30;;;;;;;2.97;2.08;;;;;;;28.97;33.66;100567.94;5093562;28;20040;-62
2022/07/05 14:37:56;;;;;;;2.38;0.90;;;;;;;28.78;32.53;100573.25;5093286;28;20554;-61
2022/07/05 14:40:23;;;;;;;2.17;1.13;;;;;;;28.82;32.00;100565.25;5092989;28;20456;-59
2022/07/05 14:42:49;;;;;;;;;;;;;;;28.73;32.86;100569.75;5093581;28;20058;-56
2022/07/05 14:45:14;;;;;;;3.10;1.30;;;;;;;28.58;30.60;100567.94;5093198;28;20357;-61
2022/07/05 14:47:40;;;;;;;1.90;0.90;;;;;;;28.34;30.81;100571.38;5093133;28;20060;-59
2022/07/05 14:50:05;;;;;;;1.27;1.00;;;;;;;28.44;30.55;100564.22;5092820;28;20382;-61
2022/07/05 14:52:31;;;;;;;1.00;0.88;;;;;;;28.47;31.11;100569.91;5092816;28;20377;-61
2022/07/05 14:54:56;;;;;;;1.02;0.88;;;;;;;28.34;29.45;100560.41;5093029;28;20439;-61
2022/07/05 14:57:22;;;;;;;1.33;0.90;;;;;;;28.26;29.52;100554.69;5093048;28;20043;-61
2022/07/05 14:59:47;;;;;;;1.20;0.90;;;;;;;28.45;32.45;100552.16;5092648;28;20040;-60
2022/07/05 15:02:14;;;;;;;2.33;1.00;;;;;;;28.54;32.15;100555.91;5074873;28;20036;-61
2022/07/05 15:04:40;;;;;;;2.75;1.20;;;;;;;28.60;31.78;100554.75;5092940;28;20036;-61
2022/07/05 15:07:06;;;;;;;2.97;1.00;;;;;;;28.59;29.82;100550.41;5092533;28;20040;-60
2022/07/05 15:09:32;;;;;;;1.20;0.82;;;;;;;28.51;30.19;100543.59;5092567;28;20039;-61
2022/07/05 15:11:57;;;;;;;1.88;1.00;;;;;;;28.55;30.88;100543.84;5092490;28;20489;-61
2022/07/05 15:14:22;;;;;;;2.13;0.90;;;;;;;28.42;29.66;100537.06;5093009;28;20065;-61
2022/07/05 15:16:48;;;;;;;1.50;1.05;;;;;;;28.39;29.45;100540.41;5092551;28;20062;-60
2022/07/05 15:19:13;;;;;;;1.95;0.95;;;;;;;28.42;30.00;100536.25;5092429;28;20036;-59
2022/07/05 15:21:39;;;;;;;1.73;1.13;;;;;;;28.36;31.34;100538.22;5092377;28;20043;-60
2022/07/05 15:24:05;;;;;;;3.90;1.10;;;;;;;28.45;31.28;100530.22;5092489;28;20036;-58
2022/07/05 15:26:30;;;;;;;2.08;0.80;;;;;;;28.39;30.93;100534.94;5092378;28;20035;-64
2022/07/05 15:29:07;;;;;;;1.92;0.80;;;;;;;28.43;31.00;100535.16;5092067;28;20071;-60
2022/07/05 15:31:34;;;;;;;1.73;0.95;;;;;;;28.25;29.95;100529.25;5092136;28;20501;-60
2022/07/05 15:34:03;;;;;;;1.45;1.13;;;;;;;28.32;30.76;100531.69;5092325;28;20051;-61
2022/07/05 15:36:33;;;;;;;1.63;1.02;;;;;;;28.15;29.67;100529.28;5092344;28;20412;-62
2022/07/05 15:39:00;;;;;;;1.40;1.00;;;;;;;28.06;30.47;100520.88;5091809;28;20126;-62
2022/07/05 15:41:28;;;;;;;2.38;0.98;;;;;;;28.07;30.00;100524.41;5092067;28;20024;-62
2022/07/05 15:43:53;;;;;;;1.48;1.00;;;;;;;28.04;30.28;100522.25;5092166;28;20370;-62
2022/07/05 15:46:19;;;;;;;2.97;1.30;;;;;;;28.10;32.01;100523.84;5073880;28;20046;-63
2022/07/05 15:48:44;;;;;;;4.90;1.70;;;;;;;28.10;29.65;100524.69;5091724;28;20042;-62
2022/07/05 15:51:12;;;;;;;2.88;1.30;;;;;;;28.18;31.76;100523.25;5091822;28;20040;-62
2022/07/05 15:53:37;;;;;;;2.92;1.00;;;;;;;28.09;30.17;100522.19;5091966;28;20404;-62
2022/07/05 15:56:03;;;;;;;1.10;0.80;;;;;;;28.12;30.43;100513.44;5091794;28;20036;-63
2022/07/05 15:58:29;;;;;;;2.05;0.85;;;;;;;28.09;29.66;100506.59;5091558;28;20071;-63
2022/07/05 16:00:56;;;;;;;0.68;0.68;;;;;;;28.13;31.09;100512.34;5091792;28;20028;-63
2022/07/05 16:03:22;;;;;;;2.23;0.97;;;;;;;28.13;31.33;100512.34;5091767;28;20044;-63
2022/07/05 16:05:47;;;;;;;1.20;0.90;;;;;;;28.11;30.34;100520.03;5091708;28;20092;-62